New Castle, PA

7:32 AM EDT on July 29, 2015 (GMT -0400)
New Castle Municipal | | Change Station
CLOSE
Current Station
Airport
Location: New Castle,
Elevation: 1073 ft
Nearby Weather Stations

Elev 1073 ft 41.03 °N, 80.41 °W | Updated 36 minutes ago

Clear
Clear
66 °F
Feels Like 66 °F
N
0
Wind Variable Wind from North

Today
High -- | Low -- °F
--% Chance of Precip.
Yesterday
High -- | Low -- °F
Precip. -- in
6:14 AM 8:41 PM
Waxing Gibbous, 95% visible
Pressure 30.03 in
Visibility -9999.0 miles
Clouds Clear
Dew Point 66 °F
Humidity 100%
Rainfall 0.00 in
Snow Depth Not available.
UV 0 out of 12
Pollen 6.40 out of 12
Air Quality Not available.
Flu Activity Not available.
METAR KUCP 291056Z AUTO 00000KT CLR 19/19 A3001 RMK AO2 T01880188 SLP169 $

More Conditions Fewer Conditions

Pressure 30.03 in
Visibility -9999.0 miles
Clouds Clear
Dew Point 66 °F
Humidity 100%
Rainfall 0.00 in
Snow Depth Not available.
UV 0 out of 12
Pollen 6.40 out of 12
Air Quality Not available.
Flu Activity Not available.
METAR KUCP 291056Z AUTO 00000KT CLR 19/19 A3001 RMK AO2 T01880188 SLP169 $

More Conditions Fewer Conditions

10-Day Weather Forecast

×

Almanac

Astronomy

Jul. 29, 2015 Rise Set
Actual Time
Civil Twilight
Nautical Twilight
Astronomical Twilight
Moon
Length of Visible Light
Length of Day
Tomorrow will be .
, % of the Moon is Illuminated

Today's Extremes

State Highs State Lows

Community

WunderPhotos

Upload Photos

1,842,075 photos uploaded!

WunderBlogs® & News

Nearby

Air Quality

  Air Quality AQ Index Pollutant
Not available.

Snow Depth

Station Depth Elevation

Earthquake Activity

City Distance Mag. Time & Date
Minimum magnitude displayed is 2.5.

Coastal Water Temperatures

Place Temperature

Stations

Nearby Weather Stations

Station Location Temp. Windchill Dew Point Humidity Wind Precip. Elev Updated Type